sensor_id;sensor_type;location;lat;lon;timestamp;P1;durP1;ratioP1;P2;durP2;ratioP2
17261;SDS011;9873;52.236;21.002;2024-03-23T01:00:47;27.13;;;14.43;;
17261;SDS011;9873;52.236;21.002;2024-03-23T01:11:00;25.38;;;13.88;;
17261;SDS011;9873;52.236;21.002;2024-03-23T01:21:02;26.98;;;14.60;;
17261;SDS011;9873;52.236;21.002;2024-03-23T01:31:06;30.55;;;15.10;;
17261;SDS011;9873;52.236;21.002;2024-03-23T01:41:12;34.97;;;19.95;;
17261;SDS011;9873;52.236;21.002;2024-03-23T01:51:18;30.90;;;17.35;;
17261;SDS011;9873;52.236;21.002;2024-03-23T02:01:20;33.05;;;17.63;;
17261;SDS011;9873;52.236;21.002;2024-03-23T02:11:26;32.97;;;17.77;;
17261;SDS011;9873;52.236;21.002;2024-03-23T02:21:27;33.38;;;18.33;;
17261;SDS011;9873;52.236;21.002;2024-03-23T02:31:29;36.30;;;17.75;;
17261;SDS011;9873;52.236;21.002;2024-03-23T02:41:33;32.08;;;18.45;;
17261;SDS011;9873;52.236;21.002;2024-03-23T02:51:35;35.83;;;18.95;;
17261;SDS011;9873;52.236;21.002;2024-03-23T03:01:36;36.70;;;19.90;;
17261;SDS011;9873;52.236;21.002;2024-03-23T03:11:37;35.80;;;19.25;;
17261;SDS011;9873;52.236;21.002;2024-03-23T03:21:39;37.67;;;19.27;;
17261;SDS011;9873;52.236;21.002;2024-03-23T03:31:42;35.42;;;20.00;;
17261;SDS011;9873;52.236;21.002;2024-03-23T03:41:46;40.13;;;20.20;;
17261;SDS011;9873;52.236;21.002;2024-03-23T03:51:50;40.03;;;20.63;;
17261;SDS011;9873;52.236;21.002;2024-03-23T04:01:51;35.17;;;19.75;;
17261;SDS011;9873;52.236;21.002;2024-03-23T04:11:55;30.10;;;17.00;;
17261;SDS011;9873;52.236;21.002;2024-03-23T04:22:01;29.40;;;18.75;;
17261;SDS011;9873;52.236;21.002;2024-03-23T04:32:04;30.75;;;17.98;;
17261;SDS011;9873;52.236;21.002;2024-03-23T04:42:09;29.70;;;19.23;;
17261;SDS011;9873;52.236;21.002;2024-03-23T04:52:13;40.25;;;21.50;;
17261;SDS011;9873;52.236;21.002;2024-03-23T05:02:14;46.55;;;23.75;;
17261;SDS011;9873;52.236;21.002;2024-03-23T05:12:16;41.92;;;22.83;;
17261;SDS011;9873;52.236;21.002;2024-03-23T05:22:17;44.22;;;21.98;;
17261;SDS011;9873;52.236;21.002;2024-03-23T05:32:18;45.33;;;23.60;;
17261;SDS011;9873;52.236;21.002;2024-03-23T05:42:21;39.67;;;22.27;;
17261;SDS011;9873;52.236;21.002;2024-03-23T05:52:22;42.08;;;21.48;;
17261;SDS011;9873;52.236;21.002;2024-03-23T06:02:28;53.40;;;32.50;;
17261;SDS011;9873;52.236;21.002;2024-03-23T06:12:35;41.78;;;21.33;;
17261;SDS011;9873;52.236;21.002;2024-03-23T06:22:38;40.10;;;21.33;;
17261;SDS011;9873;52.236;21.002;2024-03-23T06:32:42;38.65;;;20.38;;
17261;SDS011;9873;52.236;21.002;2024-03-23T06:42:58;36.88;;;20.35;;
17261;SDS011;9873;52.236;21.002;2024-03-23T06:53:01;40.40;;;21.60;;
17261;SDS011;9873;52.236;21.002;2024-03-23T07:03:08;41.55;;;19.58;;
17261;SDS011;9873;52.236;21.002;2024-03-23T07:13:13;39.00;;;20.80;;
17261;SDS011;9873;52.236;21.002;2024-03-23T07:23:14;38.70;;;21.17;;
17261;SDS011;9873;52.236;21.002;2024-03-23T07:33:16;38.92;;;20.30;;
17261;SDS011;9873;52.236;21.002;2024-03-23T07:43:18;32.75;;;16.40;;
17261;SDS011;9873;52.236;21.002;2024-03-23T07:53:32;35.10;;;17.98;;
17261;SDS011;9873;52.236;21.002;2024-03-23T08:03:42;40.15;;;19.63;;
17261;SDS011;9873;52.236;21.002;2024-03-23T08:13:46;34.05;;;19.05;;
17261;SDS011;9873;52.236;21.002;2024-03-23T08:23:52;33.70;;;17.60;;
17261;SDS011;9873;52.236;21.002;2024-03-23T08:33:56;38.80;;;19.20;;
17261;SDS011;9873;52.236;21.002;2024-03-23T08:44:00;37.05;;;18.48;;
17261;SDS011;9873;52.236;21.002;2024-03-23T08:54:02;32.88;;;18.73;;
17261;SDS011;9873;52.236;21.002;2024-03-23T09:04:07;28.75;;;17.75;;
17261;SDS011;9873;52.236;21.002;2024-03-23T09:24:23;22.15;;;13.65;;
17261;SDS011;9873;52.236;21.002;2024-03-23T09:34:24;19.95;;;12.05;;
17261;SDS011;9873;52.236;21.002;2024-03-23T09:44:28;20.67;;;12.00;;
17261;SDS011;9873;52.236;21.002;2024-03-23T09:54:34;18.33;;;12.02;;
17261;SDS011;9873;52.236;21.002;2024-03-23T10:04:40;16.98;;;10.80;;
17261;SDS011;9873;52.236;21.002;2024-03-23T10:14:43;15.98;;;10.23;;
17261;SDS011;9873;52.236;21.002;2024-03-23T10:24:48;13.55;;;9.40;;
17261;SDS011;9873;52.236;21.002;2024-03-23T10:34:49;15.13;;;8.85;;
17261;SDS011;9873;52.236;21.002;2024-03-23T10:44:53;12.75;;;8.35;;
17261;SDS011;9873;52.236;21.002;2024-03-23T10:54:58;13.88;;;9.05;;
17261;SDS011;9873;52.236;21.002;2024-03-23T11:05:01;12.77;;;8.15;;
17261;SDS011;9873;52.236;21.002;2024-03-23T11:15:05;13.30;;;7.57;;
17261;SDS011;9873;52.236;21.002;2024-03-23T11:25:16;13.90;;;7.53;;
17261;SDS011;9873;52.236;21.002;2024-03-23T11:35:38;9.85;;;6.57;;
17261;SDS011;9873;52.236;21.002;2024-03-23T11:45:45;10.18;;;6.00;;
17261;SDS011;9873;52.236;21.002;2024-03-23T11:55:52;9.43;;;6.93;;
17261;SDS011;9873;52.236;21.002;2024-03-23T12:06:03;9.77;;;5.63;;
17261;SDS011;9873;52.236;21.002;2024-03-23T12:16:24;7.90;;;5.75;;
17261;SDS011;9873;52.236;21.002;2024-03-23T12:26:28;8.48;;;5.63;;
17261;SDS011;9873;52.236;21.002;2024-03-23T12:36:39;9.50;;;5.45;;
17261;SDS011;9873;52.236;21.002;2024-03-23T12:46:42;8.07;;;5.80;;
17261;SDS011;9873;52.236;21.002;2024-03-23T12:56:46;9.10;;;6.00;;
17261;SDS011;9873;52.236;21.002;2024-03-23T13:06:54;9.07;;;6.35;;
17261;SDS011;9873;52.236;21.002;2024-03-23T13:16:57;10.02;;;6.85;;
17261;SDS011;9873;52.236;21.002;2024-03-23T13:27:00;9.65;;;6.45;;
17261;SDS011;9873;52.236;21.002;2024-03-23T13:37:02;13.13;;;7.00;;
17261;SDS011;9873;52.236;21.002;2024-03-23T13:47:06;8.15;;;6.00;;
17261;SDS011;9873;52.236;21.002;2024-03-23T13:57:11;9.80;;;6.50;;
17261;SDS011;9873;52.236;21.002;2024-03-23T14:07:12;8.77;;;6.45;;
17261;SDS011;9873;52.236;21.002;2024-03-23T14:17:17;10.45;;;6.07;;
17261;SDS011;9873;52.236;21.002;2024-03-23T14:27:19;10.52;;;6.28;;
17261;SDS011;9873;52.236;21.002;2024-03-23T14:37:24;8.32;;;5.70;;
17261;SDS011;9873;52.236;21.002;2024-03-23T14:47:28;7.13;;;6.05;;
17261;SDS011;9873;52.236;21.002;2024-03-23T14:57:31;9.57;;;5.78;;
17261;SDS011;9873;52.236;21.002;2024-03-23T15:07:34;11.63;;;6.65;;
17261;SDS011;9873;52.236;21.002;2024-03-23T15:17:40;12.48;;;8.60;;
17261;SDS011;9873;52.236;21.002;2024-03-23T15:27:46;15.48;;;10.50;;
17261;SDS011;9873;52.236;21.002;2024-03-23T15:37:48;16.67;;;10.57;;
17261;SDS011;9873;52.236;21.002;2024-03-23T15:47:49;22.70;;;13.00;;
17261;SDS011;9873;52.236;21.002;2024-03-23T15:57:55;17.60;;;11.10;;
17261;SDS011;9873;52.236;21.002;2024-03-23T16:07:56;11.40;;;7.68;;
17261;SDS011;9873;52.236;21.002;2024-03-23T16:17:57;12.27;;;8.60;;
17261;SDS011;9873;52.236;21.002;2024-03-23T16:28:07;13.68;;;9.43;;
17261;SDS011;9873;52.236;21.002;2024-03-23T16:38:08;19.88;;;10.73;;
17261;SDS011;9873;52.236;21.002;2024-03-23T16:48:12;12.07;;;8.77;;
17261;SDS011;9873;52.236;21.002;2024-03-23T16:58:19;12.65;;;9.18;;
17261;SDS011;9873;52.236;21.002;2024-03-23T17:08:21;15.68;;;8.88;;
17261;SDS011;9873;52.236;21.002;2024-03-23T17:18:23;14.07;;;8.50;;
17261;SDS011;9873;52.236;21.002;2024-03-23T17:28:24;16.35;;;10.85;;
17261;SDS011;9873;52.236;21.002;2024-03-23T17:38:26;12.93;;;8.90;;
17261;SDS011;9873;52.236;21.002;2024-03-23T17:48:27;12.45;;;8.55;;
17261;SDS011;9873;52.236;21.002;2024-03-23T17:58:32;11.38;;;8.57;;
17261;SDS011;9873;52.236;21.002;2024-03-23T18:08:35;16.63;;;10.30;;
17261;SDS011;9873;52.236;21.002;2024-03-23T18:18:39;13.38;;;9.27;;
17261;SDS011;9873;52.236;21.002;2024-03-23T18:28:41;10.73;;;8.70;;
17261;SDS011;9873;52.236;21.002;2024-03-23T18:38:45;12.27;;;9.40;;
17261;SDS011;9873;52.236;21.002;2024-03-23T18:48:49;4.55;;;3.28;;
17261;SDS011;9873;52.236;21.002;2024-03-23T18:58:50;5.25;;;3.40;;
17261;SDS011;9873;52.236;21.002;2024-03-23T19:08:52;2.33;;;1.97;;
17261;SDS011;9873;52.236;21.002;2024-03-23T19:19:00;3.63;;;2.03;;
17261;SDS011;9873;52.236;21.002;2024-03-23T19:29:06;1.73;;;1.03;;
17261;SDS011;9873;52.236;21.002;2024-03-23T19:39:10;2.03;;;1.30;;
17261;SDS011;9873;52.236;21.002;2024-03-23T19:49:15;2.30;;;1.80;;
17261;SDS011;9873;52.236;21.002;2024-03-23T19:59:25;1.73;;;1.50;;
17261;SDS011;9873;52.236;21.002;2024-03-23T20:09:31;2.40;;;1.60;;
17261;SDS011;9873;52.236;21.002;2024-03-23T20:19:35;2.50;;;1.47;;
17261;SDS011;9873;52.236;21.002;2024-03-23T20:29:38;4.37;;;2.10;;
17261;SDS011;9873;52.236;21.002;2024-03-23T20:39:45;3.20;;;2.50;;
17261;SDS011;9873;52.236;21.002;2024-03-23T20:49:48;3.03;;;2.20;;
17261;SDS011;9873;52.236;21.002;2024-03-23T20:59:56;5.60;;;2.90;;
17261;SDS011;9873;52.236;21.002;2024-03-23T21:09:57;3.27;;;2.33;;
17261;SDS011;9873;52.236;21.002;2024-03-23T21:19:59;2.83;;;2.37;;
17261;SDS011;9873;52.236;21.002;2024-03-23T21:30:05;4.57;;;2.77;;
17261;SDS011;9873;52.236;21.002;2024-03-23T21:40:07;6.67;;;3.00;;
17261;SDS011;9873;52.236;21.002;2024-03-23T21:50:14;5.00;;;3.10;;
17261;SDS011;9873;52.236;21.002;2024-03-23T22:00:15;3.20;;;2.83;;
17261;SDS011;9873;52.236;21.002;2024-03-23T22:10:20;4.67;;;2.97;;
17261;SDS011;9873;52.236;21.002;2024-03-23T22:20:26;5.57;;;4.37;;
17261;SDS011;9873;52.236;21.002;2024-03-23T22:30:31;6.67;;;3.57;;
17261;SDS011;9873;52.236;21.002;2024-03-23T22:40:36;7.97;;;3.33;;
17261;SDS011;9873;52.236;21.002;2024-03-23T22:50:42;6.40;;;3.47;;
17261;SDS011;9873;52.236;21.002;2024-03-23T23:00:44;7.20;;;3.37;;
17261;SDS011;9873;52.236;21.002;2024-03-23T23:10:52;5.43;;;3.50;;
17261;SDS011;9873;52.236;21.002;2024-03-23T23:20:56;8.20;;;4.20;;
17261;SDS011;9873;52.236;21.002;2024-03-23T23:31:00;7.20;;;4.70;;
17261;SDS011;9873;52.236;21.002;2024-03-23T23:41:04;9.13;;;5.70;;
17261;SDS011;9873;52.236;21.002;2024-03-23T23:51:08;9.43;;;4.97;;
